createdAt,value
2022-11-05T00:03:22.480Z,8.37
2022-11-05T00:08:40.919Z,8.38
2022-11-05T00:14:00.411Z,8.33
2022-11-05T00:19:07.507Z,8.38
2022-11-05T00:24:28.668Z,8.41
2022-11-05T00:29:30.854Z,8.41
2022-11-05T00:34:31.666Z,8.40
2022-11-05T00:39:32.472Z,8.40
2022-11-05T00:44:52.289Z,8.40
2022-11-05T00:49:53.036Z,8.47
2022-11-05T00:54:53.841Z,8.44
2022-11-05T00:59:55.998Z,8.45
2022-11-05T01:04:56.806Z,8.47
2022-11-05T01:09:57.575Z,8.44
2022-11-05T01:14:59.900Z,8.46
2022-11-05T01:20:00.699Z,8.44
2022-11-05T01:25:01.708Z,8.44
2022-11-05T01:30:04.937Z,8.46
2022-11-05T01:35:06.900Z,8.49
2022-11-05T01:40:10.240Z,8.47
2022-11-05T01:45:17.927Z,8.48
2022-11-05T01:50:29.954Z,8.50
2022-11-05T01:55:35.026Z,8.47
2022-11-05T02:00:37.707Z,8.47
2022-11-05T02:05:41.418Z,8.46
2022-11-05T02:10:44.696Z,8.43
2022-11-05T02:15:56.849Z,8.43
2022-11-05T02:21:11.661Z,8.36
2022-11-05T02:26:44.597Z,8.39
2022-11-05T02:31:55.403Z,8.39
2022-11-05T02:37:06.573Z,8.38
2022-11-05T02:42:16.301Z,8.42
2022-11-05T02:47:26.920Z,8.44
2022-11-05T02:52:35.325Z,8.44
2022-11-05T02:57:37.359Z,8.45
2022-11-05T03:02:39.758Z,8.45
2022-11-05T03:07:50.410Z,8.46
2022-11-05T03:13:02.808Z,8.44
2022-11-05T03:18:13.032Z,8.42
2022-11-05T03:23:26.612Z,8.44
2022-11-05T03:28:32.427Z,8.43
2022-11-05T03:33:37.406Z,8.47
2022-11-05T03:38:42.359Z,8.45
2022-11-05T03:43:47.905Z,8.45
2022-11-05T03:48:55.367Z,8.47
2022-11-05T03:53:58.767Z,8.42
2022-11-05T03:59:01.565Z,8.45
2022-11-05T04:04:04.250Z,8.50
2022-11-05T04:09:22.535Z,8.49
2022-11-05T04:14:23.390Z,8.48
2022-11-05T04:19:39.483Z,8.53
2022-11-05T04:24:40.336Z,8.51
2022-11-05T04:29:59.526Z,8.50
2022-11-05T04:35:01.696Z,8.54
2022-11-05T04:40:02.552Z,8.56
2022-11-05T04:45:03.474Z,8.50
2022-11-05T04:50:06.084Z,8.50
2022-11-05T04:55:07.513Z,8.56
2022-11-05T05:00:10.951Z,8.52
2022-11-05T05:05:13.733Z,8.49
2022-11-05T05:10:14.587Z,8.53
2022-11-05T05:15:15.429Z,8.50
2022-11-05T05:20:35.444Z,8.46
2022-11-05T05:25:36.208Z,8.44
2022-11-05T05:30:37.166Z,8.43
2022-11-05T05:35:40.601Z,8.47
2022-11-05T05:40:41.579Z,8.44
2022-11-05T05:45:42.354Z,8.45
2022-11-05T05:50:44.488Z,8.46
2022-11-05T05:55:45.268Z,8.44
2022-11-05T06:00:46.059Z,8.45
2022-11-05T06:05:48.988Z,8.45
2022-11-05T06:10:52.272Z,8.44
2022-11-05T06:15:53.553Z,8.43
2022-11-05T06:20:55.953Z,8.42
2022-11-05T06:26:00.855Z,8.47
2022-11-05T06:31:02.075Z,8.51
2022-11-05T06:36:05.708Z,8.52
2022-11-05T06:41:10.337Z,8.55
2022-11-05T06:46:12.477Z,8.59
2022-11-05T06:51:14.590Z,8.68
2022-11-05T06:56:15.383Z,8.71
2022-11-05T07:01:16.505Z,8.75
2022-11-05T07:06:18.829Z,8.75
2022-11-05T07:11:19.655Z,8.71
2022-11-05T07:16:20.445Z,8.87
2022-11-05T07:21:22.607Z,8.90
2022-11-05T07:26:23.411Z,9.00
2022-11-05T07:31:24.275Z,9.06
2022-11-05T07:36:26.729Z,9.03
2022-11-05T07:41:28.451Z,9.04
2022-11-05T07:46:29.310Z,9.00
2022-11-05T07:51:31.474Z,9.08
2022-11-05T07:56:34.283Z,9.12
2022-11-05T08:01:35.412Z,9.21
2022-11-05T08:06:41.933Z,9.14
2022-11-05T08:11:42.793Z,9.25
2022-11-05T08:16:43.644Z,9.35
2022-11-05T08:21:45.814Z,9.41
2022-11-05T08:26:47.747Z,9.54
2022-11-05T08:31:48.634Z,9.40
2022-11-05T08:36:50.789Z,9.41
2022-11-05T08:41:51.582Z,9.65
2022-11-05T08:46:52.755Z,9.85
2022-11-05T08:51:55.134Z,9.70
2022-11-05T08:56:55.953Z,9.71
2022-11-05T09:01:56.836Z,9.71
2022-11-05T09:06:59.060Z,9.80
2022-11-05T09:12:12.199Z,10.03
2022-11-05T09:17:18.049Z,10.22
2022-11-05T09:22:20.334Z,10.18
2022-11-05T09:27:21.394Z,10.12
2022-11-05T09:32:23.293Z,10.05
2022-11-05T09:37:25.651Z,9.98
2022-11-05T09:42:32.649Z,10.32
2022-11-05T09:47:37.635Z,10.24
2022-11-05T09:52:39.853Z,10.17
2022-11-05T09:57:46.885Z,10.12
2022-11-05T10:02:51.830Z,9.99
2022-11-05T10:07:59.396Z,10.18
2022-11-05T10:13:06.180Z,10.32
2022-11-05T10:18:15.759Z,10.53
2022-11-05T10:23:20.791Z,10.71
2022-11-05T10:28:24.829Z,10.76
2022-11-05T10:33:33.202Z,10.79
2022-11-05T10:38:35.408Z,10.73
2022-11-05T10:43:41.496Z,10.69
2022-11-05T10:48:54.078Z,10.98
2022-11-05T10:54:02.087Z,11.29
2022-11-05T10:59:12.082Z,11.20
2022-11-05T11:04:18.206Z,11.18
2022-11-05T11:09:23.787Z,11.34
2022-11-05T11:14:24.582Z,11.45
2022-11-05T11:19:28.725Z,11.30
2022-11-05T11:24:33.573Z,11.06
2022-11-05T11:29:40.505Z,11.28
2022-11-05T11:34:46.804Z,11.52
2022-11-05T11:39:52.540Z,11.68
2022-11-05T11:44:53.608Z,12.11
2022-11-05T11:49:57.139Z,12.15
2022-11-05T11:55:29.446Z,12.09
2022-11-05T12:00:32.590Z,11.58
2022-11-05T12:05:44.727Z,11.54
2022-11-05T12:10:59.174Z,11.97
2022-11-05T12:16:08.543Z,12.14
2022-11-05T12:21:34.562Z,12.06
2022-11-05T12:26:54.521Z,11.97
2022-11-05T12:32:05.676Z,11.78
2022-11-05T12:37:20.759Z,11.63
2022-11-05T12:42:42.217Z,11.67
2022-11-05T12:47:57.092Z,11.38
2022-11-05T12:53:28.121Z,11.19
2022-11-05T12:58:34.347Z,11.13
2022-11-05T13:03:43.401Z,11.33
2022-11-05T13:08:47.925Z,11.42
2022-11-05T13:14:00.603Z,11.31
2022-11-05T13:19:08.192Z,11.14
2022-11-05T13:24:16.237Z,11.23
2022-11-05T13:29:23.503Z,11.51
2022-11-05T13:34:24.427Z,11.73
2022-11-05T13:39:28.826Z,12.04
2022-11-05T13:44:59.528Z,11.95
2022-11-05T13:50:29.877Z,11.87
2022-11-05T13:55:57.088Z,11.73
2022-11-05T14:01:10.234Z,11.64
2022-11-05T14:06:11.776Z,11.42
2022-11-05T14:11:22.880Z,11.34
2022-11-05T14:16:27.002Z,11.24
2022-11-05T14:21:34.211Z,11.19
2022-11-05T14:26:35.024Z,11.00
2022-11-05T14:32:08.666Z,10.87
2022-11-05T14:37:37.068Z,10.86
2022-11-05T14:42:38.485Z,10.74
2022-11-05T14:47:45.265Z,10.59
2022-11-05T14:52:53.635Z,10.44
2022-11-05T14:58:23.248Z,10.38
2022-11-05T15:04:17.126Z,10.23
2022-11-05T15:09:28.252Z,10.07
2022-11-05T15:14:33.334Z,10.04
2022-11-05T15:19:38.045Z,9.88
2022-11-05T15:24:42.674Z,9.65
2022-11-05T15:29:44.022Z,9.62
2022-11-05T15:34:53.933Z,9.45
2022-11-05T15:39:56.431Z,9.26
2022-11-05T15:44:58.615Z,8.98
2022-11-05T15:50:03.768Z,8.88
2022-11-05T15:55:11.102Z,8.78
2022-11-05T16:00:18.468Z,8.70
2022-11-05T16:05:21.570Z,8.54
2022-11-05T16:10:26.594Z,8.58
2022-11-05T16:15:32.218Z,8.50
2022-11-05T16:20:37.000Z,8.33
2022-11-05T16:25:40.013Z,8.29
2022-11-05T16:30:40.827Z,8.20
2022-11-05T16:35:49.177Z,8.23
2022-11-05T16:40:50.006Z,8.05
2022-11-05T16:45:53.920Z,7.96
2022-11-05T16:50:56.147Z,8.14
2022-11-05T16:55:57.193Z,8.13
2022-11-05T17:01:02.855Z,8.19
2022-11-05T17:06:05.381Z,8.18
2022-11-05T17:11:06.904Z,7.84
2022-11-05T17:16:10.583Z,7.60
2022-11-05T17:21:14.125Z,7.42
2022-11-05T17:26:15.210Z,7.31
2022-11-05T17:31:17.345Z,7.18
2022-11-05T17:36:19.519Z,7.10
2022-11-05T17:41:22.231Z,7.17
2022-11-05T17:46:23.554Z,7.04
2022-11-05T17:51:25.726Z,6.87
2022-11-05T17:56:33.840Z,6.76
2022-11-05T18:01:42.798Z,6.69
2022-11-05T18:06:45.630Z,6.55
2022-11-05T18:11:46.882Z,6.43
2022-11-05T18:16:47.699Z,6.43
2022-11-05T18:21:49.835Z,6.34
2022-11-05T18:26:51.172Z,6.34
2022-11-05T18:31:52.033Z,6.30
2022-11-05T18:36:56.529Z,6.25
2022-11-05T18:41:57.592Z,6.20
2022-11-05T18:46:59.034Z,6.08
2022-11-05T18:52:01.271Z,6.05
2022-11-05T18:57:02.317Z,6.01
2022-11-05T19:02:03.608Z,5.99
2022-11-05T19:07:06.547Z,5.91
2022-11-05T19:12:08.500Z,5.89
2022-11-05T19:17:09.360Z,5.79
2022-11-05T19:22:11.746Z,5.84
2022-11-05T19:27:12.647Z,5.82
2022-11-05T19:32:13.475Z,5.85
2022-11-05T19:37:16.799Z,5.80
2022-11-05T19:42:17.599Z,5.79
2022-11-05T19:47:18.402Z,5.78
2022-11-05T19:52:20.608Z,5.74
2022-11-05T19:57:21.526Z,5.74
2022-11-05T20:02:22.500Z,5.71
2022-11-05T20:07:24.946Z,5.63
2022-11-05T20:12:25.893Z,5.64
2022-11-05T20:17:26.989Z,5.60
2022-11-05T20:22:29.257Z,5.54
2022-11-05T20:27:30.543Z,5.47
2022-11-05T20:32:32.132Z,5.46
2022-11-05T20:37:34.670Z,5.44
2022-11-05T20:42:37.273Z,5.40
2022-11-05T20:47:38.578Z,5.31
2022-11-05T20:52:41.210Z,5.29
2022-11-05T20:57:42.524Z,5.23
2022-11-05T21:02:43.572Z,5.19
2022-11-05T21:07:45.946Z,5.14
2022-11-05T21:12:47.248Z,5.03
2022-11-05T21:17:48.125Z,5.00
2022-11-05T21:22:50.598Z,4.94
2022-11-05T21:27:51.425Z,4.88
2022-11-05T21:32:53.351Z,4.85
2022-11-05T21:37:55.581Z,4.80
2022-11-05T21:42:56.393Z,4.72
2022-11-05T21:47:57.449Z,4.64
2022-11-05T21:53:17.238Z,4.73
2022-11-05T21:58:36.079Z,4.75
2022-11-05T22:03:37.088Z,4.74
2022-11-05T22:08:39.765Z,4.74
2022-11-05T22:13:40.552Z,4.71
2022-11-05T22:18:41.363Z,4.75
2022-11-05T22:23:43.539Z,4.76
2022-11-05T22:28:44.408Z,4.77
2022-11-05T22:33:45.378Z,4.71
2022-11-05T22:38:47.575Z,4.69
2022-11-05T22:43:48.890Z,4.67
2022-11-05T22:48:49.889Z,4.67
2022-11-05T22:53:52.281Z,4.71
2022-11-05T22:58:53.577Z,4.75
2022-11-05T23:03:57.337Z,4.69
2022-11-05T23:09:18.014Z,4.73
2022-11-05T23:14:18.797Z,4.72
2022-11-05T23:19:37.565Z,4.64
2022-11-05T23:24:40.048Z,4.61
2022-11-05T23:29:41.777Z,4.53
2022-11-05T23:34:42.606Z,4.52
2022-11-05T23:39:44.730Z,4.37
2022-11-05T23:45:03.013Z,4.38
2022-11-05T23:50:04.031Z,4.29
2022-11-05T23:55:06.768Z,4.30
